Terminal Aerodrome Forecast
Issued by NWS Northern Indiana

Home | Current Version | Previous Version | Text Only | Print | Product List | Glossary On
Versions: 1 2 3 4 5 6 7 8 9 10 11 12 13 14 15
000
FTUS43 KIWX 201742
TAFFWA
TAF
KFWA 201742Z 2018/2118 11011KT P6SM BKN200
     FM202000 14011KT P6SM BKN200
     FM210700 17010KT P6SM SCT080 BKN200
     FM211000 19009KT 5SM BR VCSH SCT070 BKN150
     FM211200 21008KT 3SM -SHRA BR SCT040 OVC090
     FM211600 24009KT 3SM -SHRA BR SCT012 OVC025=

USA.gov is the U.S. government's official web portal to all federal, state and local government web resources and services.